Time;durP1;ratioP1;P1;durP2;ratioP2;P2;SDS_P1;SDS_P2;PMS_P1;PMS_P2;Temp;Humidity;BMP_temperature;BMP_pressure;BME280_temperature;BME280_humidity;BME280_pressure;Samples;Min_cycle;Max_cycle;Signal;HPM_P1;HPM_P2
2023/07/25 00:00:01;;;;;;;4.80;1.57;;;;;;;;;;5093757;28;20260;-80
2023/07/25 00:02:30;;;;;;;0.67;0.67;;;;;;;;;;5093558;28;20204;-80
2023/07/25 00:04:58;;;;;;;13.07;0.80;;;;;;;;;;5093235;28;20235;-80
2023/07/25 00:07:27;;;;;;;1.13;1.00;;;;;;;;;;5093265;28;20236;-80
2023/07/25 00:09:56;;;;;;;0.40;0.40;;;;;;;;;;5093726;28;20265;-80
2023/07/25 00:12:25;;;;;;;0.80;0.80;;;;;;;;;;5092970;28;20189;-80
2023/07/25 00:14:53;;;;;;;0.60;0.60;;;;;;;;;;5093354;28;20200;-80
2023/07/25 00:17:23;;;;;;;0.77;0.77;;;;;;;;;;5093620;28;20200;-80
2023/07/25 00:19:51;;;;;;;1.53;1.53;;;;;;;;;;5093121;28;20216;-80
2023/07/25 00:22:20;;;;;;;0.57;0.57;;;;;;;;;;5092072;28;20207;-80
2023/07/25 00:24:48;;;;;;;0.60;0.60;;;;;;;;;;5092971;28;20272;-80
2023/07/25 00:27:17;;;;;;;0.50;0.50;;;;;;;;;;5093487;28;20286;-80
2023/07/25 00:29:46;;;;;;;0.70;0.70;;;;;;;;;;5092663;28;20226;-80
2023/07/25 00:32:14;;;;;;;0.77;0.73;;;;;;;;;;5092975;28;20204;-80
2023/07/25 00:34:44;;;;;;;1.90;1.27;;;;;;;;;;5093372;28;20193;-80
2023/07/25 00:37:13;;;;;;;1.27;1.17;;;;;;;;;;5092680;28;20207;-80
2023/07/25 00:39:41;;;;;;;0.67;0.67;;;;;;;;;;5093046;28;20206;-80
2023/07/25 00:42:10;;;;;;;4.37;1.00;;;;;;;;;;5092928;28;20207;-80
2023/07/25 00:44:38;;;;;;;0.60;0.60;;;;;;;;;;5092955;28;20246;-80
2023/07/25 00:47:06;;;;;;;1.53;0.77;;;;;;;;;;5092488;28;20200;-80
2023/07/25 00:49:35;;;;;;;0.73;0.73;;;;;;;;;;5092813;28;20216;-80
2023/07/25 00:52:05;;;;;;;1.07;1.07;;;;;;;;;;5092531;28;20200;-80
2023/07/25 00:54:34;;;;;;;0.50;0.50;;;;;;;;;;5092793;28;20250;-80
2023/07/25 00:57:02;;;;;;;0.50;0.50;;;;;;;;;;5092387;28;20204;-80
2023/07/25 00:59:31;;;;;;;0.60;0.60;;;;;;;;;;5092447;28;20215;-80
2023/07/25 01:02:00;;;;;;;0.50;0.50;;;;;;;;;;5092569;28;20204;-80
2023/07/25 01:04:28;;;;;;;0.60;0.60;;;;;;;;;;5091802;28;20224;-80
2023/07/25 01:06:58;;;;;;;0.57;0.50;;;;;;;;;;5092399;28;20235;-80
2023/07/25 01:09:37;;;;;;;2.53;0.80;;;;;;;;;;5092555;28;20203;-80
2023/07/25 01:12:06;;;;;;;0.70;0.70;;;;;;;;;;5092293;28;20204;-80
2023/07/25 01:14:35;;;;;;;0.70;0.70;;;;;;;;;;5091980;28;20195;-80
2023/07/25 01:17:07;;;;;;;0.60;0.60;;;;;;;;;;5092405;28;20202;-80
2023/07/25 01:19:36;;;;;;;0.40;0.40;;;;;;;;;;5092066;28;20214;-80
2023/07/25 01:22:04;;;;;;;0.40;0.40;;;;;;;;;;5091725;28;20200;-81
2023/07/25 01:24:34;;;;;;;3.73;0.90;;;;;;;;;;5092006;28;20222;-80
2023/07/25 01:27:03;;;;;;;0.73;0.73;;;;;;;;;;5092104;28;20226;-80
2023/07/25 01:29:31;;;;;;;0.47;0.47;;;;;;;;;;5091839;28;20204;-80
2023/07/25 01:32:00;;;;;;;0.80;0.80;;;;;;;;;;5091875;28;20205;-80
2023/07/25 01:34:28;;;;;;;1.07;0.97;;;;;;;;;;5091388;28;20196;-80
2023/07/25 01:36:57;;;;;;;0.60;0.60;;;;;;;;;;5092381;28;20208;-80
2023/07/25 01:39:25;;;;;;;0.97;0.93;;;;;;;;;;5091413;28;20207;-80
2023/07/25 01:41:55;;;;;;;0.40;0.40;;;;;;;;;;5092390;28;20222;-81
2023/07/25 01:44:23;;;;;;;0.60;0.60;;;;;;;;;;5091770;28;20223;-81
2023/07/25 01:46:52;;;;;;;0.43;0.43;;;;;;;;;;5092021;28;20219;-85
2023/07/25 01:49:20;;;;;;;0.50;0.50;;;;;;;;;;5091597;28;20197;-84
2023/07/25 01:51:49;;;;;;;0.40;0.40;;;;;;;;;;5091757;28;20198;-84
2023/07/25 01:54:17;;;;;;;3.03;1.13;;;;;;;;;;5091701;28;20199;-84
2023/07/25 01:56:52;;;;;;;6.13;1.17;;;;;;;;;;5091742;28;20234;-84
2023/07/25 01:59:22;;;;;;;0.40;0.40;;;;;;;;;;5091741;28;20233;-84
2023/07/25 02:01:50;;;;;;;0.40;0.40;;;;;;;;;;5092203;28;20211;-84
2023/07/25 02:06:55;;;;;;;0.50;0.50;;;;;;;;;;5266287;23;20262;-84
2023/07/25 02:09:23;;;;;;;0.43;0.43;;;;;;;;;;4992378;28;20208;-84
2023/07/25 02:11:51;;;;;;;0.50;0.50;;;;;;;;;;4992423;28;20214;-83
2023/07/25 02:14:22;;;;;;;0.60;0.60;;;;;;;;;;4974235;28;20211;-83
2023/07/25 02:16:50;;;;;;;1.40;1.33;;;;;;;;;;4972859;28;20196;-83
2023/07/25 02:19:19;;;;;;;0.50;0.50;;;;;;;;;;4972975;28;20208;-83
2023/07/25 02:21:47;;;;;;;0.87;0.87;;;;;;;;;;4972438;28;20212;-83
2023/07/25 02:24:16;;;;;;;0.83;0.83;;;;;;;;;;4972631;28;20214;-82
2023/07/25 02:26:44;;;;;;;0.90;0.90;;;;;;;;;;4972935;28;20209;-84
2023/07/25 02:29:13;;;;;;;0.80;0.80;;;;;;;;;;4972882;28;20204;-83
2023/07/25 02:31:43;;;;;;;0.40;0.40;;;;;;;;;;4972179;28;20216;-83
2023/07/25 02:34:11;;;;;;;0.50;0.50;;;;;;;;;;4973099;28;20209;-84
2023/07/25 02:36:40;;;;;;;2.87;2.20;;;;;;;;;;4972929;28;20203;-84
2023/07/25 02:39:12;;;;;;;4.27;1.90;;;;;;;;;;4972381;28;20218;-83
2023/07/25 02:41:40;;;;;;;1.50;1.40;;;;;;;;;;4972445;28;20211;-83
2023/07/25 02:44:08;;;;;;;1.53;1.43;;;;;;;;;;4972825;28;20235;-82
2023/07/25 02:46:37;;;;;;;1.00;1.00;;;;;;;;;;4973838;28;20238;-82
2023/07/25 02:49:07;;;;;;;3.30;1.17;;;;;;;;;;4975803;28;20302;-82
2023/07/25 02:51:35;;;;;;;0.50;0.50;;;;;;;;;;4976207;28;20216;-82
2023/07/25 02:54:04;;;;;;;0.50;0.50;;;;;;;;;;4976140;28;20246;-82
2023/07/25 02:56:32;;;;;;;1.43;1.33;;;;;;;;;;4975834;28;20197;-83
2023/07/25 02:59:01;;;;;;;0.40;0.40;;;;;;;;;;4975940;28;20211;-83
2023/07/25 03:01:29;;;;;;;0.47;0.47;;;;;;;;;;4976347;28;20205;-83
2023/07/25 03:03:58;;;;;;;1.20;1.20;;;;;;;;;;4976177;28;20280;-83
2023/07/25 03:06:28;;;;;;;0.73;0.73;;;;;;;;;;4975372;28;20229;-82
2023/07/25 03:08:56;;;;;;;0.83;0.83;;;;;;;;;;4976123;28;20208;-83
2023/07/25 03:11:25;;;;;;;1.73;0.77;;;;;;;;;;4975713;28;20205;-83
2023/07/25 03:13:53;;;;;;;3.50;1.63;;;;;;;;;;4975774;28;20282;-83
2023/07/25 03:16:22;;;;;;;0.90;0.83;;;;;;;;;;4975289;28;20208;-83
2023/07/25 03:18:50;;;;;;;0.97;0.97;;;;;;;;;;4975941;28;20212;-84
2023/07/25 03:21:19;;;;;;;1.00;1.00;;;;;;;;;;4975789;28;20216;-83
2023/07/25 03:23:49;;;;;;;1.13;1.03;;;;;;;;;;4975060;28;20206;-84
2023/07/25 03:26:18;;;;;;;8.40;1.17;;;;;;;;;;4976350;28;20216;-84
2023/07/25 03:28:46;;;;;;;0.67;0.67;;;;;;;;;;4976284;28;20267;-84
2023/07/25 03:31:15;;;;;;;1.03;0.97;;;;;;;;;;4975665;28;20207;-84
2023/07/25 03:33:43;;;;;;;1.07;0.93;;;;;;;;;;4975228;28;20214;-84
2023/07/25 03:36:14;;;;;;;0.77;0.77;;;;;;;;;;4975749;28;20204;-83
2023/07/25 03:38:42;;;;;;;1.00;1.00;;;;;;;;;;4975964;28;20209;-84
2023/07/25 03:41:12;;;;;;;3.20;1.80;;;;;;;;;;4975281;28;20216;-83
2023/07/25 03:43:40;;;;;;;4.27;1.23;;;;;;;;;;4974685;28;20197;-83
2023/07/25 03:46:09;;;;;;;0.60;0.60;;;;;;;;;;4975168;28;20236;-82
2023/07/25 03:48:38;;;;;;;0.73;0.67;;;;;;;;;;4975758;28;20201;-83
2023/07/25 03:51:06;;;;;;;3.80;1.60;;;;;;;;;;4974721;28;20207;-83
2023/07/25 03:53:34;;;;;;;0.60;0.60;;;;;;;;;;4975130;28;20204;-83
2023/07/25 03:56:03;;;;;;;9.93;3.63;;;;;;;;;;4975352;28;20197;-83
2023/07/25 03:58:33;;;;;;;1.80;1.20;;;;;;;;;;4974470;28;20215;-83
2023/07/25 04:01:01;;;;;;;3.87;1.70;;;;;;;;;;4974881;28;20205;-83
2023/07/25 04:03:29;;;;;;;0.73;0.73;;;;;;;;;;4975124;28;20204;-83
2023/07/25 04:05:58;;;;;;;0.60;0.60;;;;;;;;;;4974514;28;20250;-84
2023/07/25 04:08:27;;;;;;;1.80;0.60;;;;;;;;;;4974460;28;20286;-83
2023/07/25 04:10:55;;;;;;;0.60;0.60;;;;;;;;;;4975015;28;20213;-83
2023/07/25 04:13:24;;;;;;;0.60;0.60;;;;;;;;;;4974536;28;20271;-83
2023/07/25 04:15:54;;;;;;;8.67;1.00;;;;;;;;;;4974142;28;20196;-83
2023/07/25 04:18:22;;;;;;;1.60;0.90;;;;;;;;;;4974655;28;20277;-83
2023/07/25 04:20:51;;;;;;;1.33;1.23;;;;;;;;;;4974566;28;20259;-83
2023/07/25 04:23:20;;;;;;;8.97;1.40;;;;;;;;;;4974493;28;20213;-83
2023/07/25 04:25:49;;;;;;;0.70;0.70;;;;;;;;;;4974066;28;20226;-83
2023/07/25 04:28:17;;;;;;;0.50;0.50;;;;;;;;;;4974584;28;20212;-83
2023/07/25 04:30:46;;;;;;;0.80;0.80;;;;;;;;;;4974899;28;20193;-83
2023/07/25 04:33:15;;;;;;;5.30;1.10;;;;;;;;;;4974490;28;20212;-83
2023/07/25 04:35:45;;;;;;;0.50;0.50;;;;;;;;;;4974746;28;20200;-83
2023/07/25 04:38:13;;;;;;;0.50;0.50;;;;;;;;;;4974209;28;20231;-83
2023/07/25 04:40:43;;;;;;;0.60;0.60;;;;;;;;;;4974638;28;20204;-83
2023/07/25 04:43:12;;;;;;;0.50;0.50;;;;;;;;;;4974277;28;20212;-83
2023/07/25 04:45:40;;;;;;;1.60;0.73;;;;;;;;;;4974205;28;20210;-83
2023/07/25 04:48:09;;;;;;;4.17;1.70;;;;;;;;;;4974364;28;20219;-83
2023/07/25 04:50:38;;;;;;;0.63;0.63;;;;;;;;;;4974209;28;20199;-83
2023/07/25 04:53:07;;;;;;;0.80;0.80;;;;;;;;;;4973752;28;20202;-83
2023/07/25 04:55:35;;;;;;;0.93;0.93;;;;;;;;;;4973606;28;20200;-83
2023/07/25 04:58:04;;;;;;;0.70;0.70;;;;;;;;;;4974016;28;20220;-83
2023/07/25 05:00:32;;;;;;;0.50;0.50;;;;;;;;;;4973756;28;20207;-82
2023/07/25 05:03:01;;;;;;;0.70;0.70;;;;;;;;;;4974135;28;20197;-83
2023/07/25 05:05:29;;;;;;;3.13;0.83;;;;;;;;;;4973927;28;20227;-83
2023/07/25 05:07:59;;;;;;;0.60;0.60;;;;;;;;;;4973395;28;20306;-83
2023/07/25 05:10:27;;;;;;;0.90;0.90;;;;;;;;;;4973839;28;20208;-83
2023/07/25 05:12:56;;;;;;;1.80;1.00;;;;;;;;;;4973945;28;20244;-83
2023/07/25 05:15:24;;;;;;;0.47;0.47;;;;;;;;;;4973785;28;20211;-83
2023/07/25 05:17:53;;;;;;;14.13;1.10;;;;;;;;;;4973483;28;20243;-83
2023/07/25 05:20:21;;;;;;;1.10;0.90;;;;;;;;;;4973855;28;20211;-84
2023/07/25 05:22:50;;;;;;;0.67;0.67;;;;;;;;;;4974113;28;20209;-83
2023/07/25 05:25:20;;;;;;;0.97;0.93;;;;;;;;;;4973568;28;20211;-82
2023/07/25 05:27:48;;;;;;;4.27;0.67;;;;;;;;;;4973298;28;20228;-82
2023/07/25 05:30:17;;;;;;;0.70;0.70;;;;;;;;;;4973517;28;20223;-83
2023/07/25 05:32:45;;;;;;;1.03;0.70;;;;;;;;;;4973555;28;20224;-84
2023/07/25 05:35:14;;;;;;;0.80;0.80;;;;;;;;;;4973160;28;20202;-82
2023/07/25 05:37:43;;;;;;;2.10;0.67;;;;;;;;;;4973739;28;20295;-82
2023/07/25 05:40:11;;;;;;;0.73;0.63;;;;;;;;;;4973278;28;20319;-83
2023/07/25 05:42:41;;;;;;;1.07;1.00;;;;;;;;;;4973237;28;20255;-83
2023/07/25 05:45:10;;;;;;;3.90;0.70;;;;;;;;;;4973465;28;20219;-83
2023/07/25 05:47:38;;;;;;;1.10;1.00;;;;;;;;;;4973113;28;20227;-82
2023/07/25 05:50:08;;;;;;;1.53;1.43;;;;;;;;;;4973612;28;20266;-82
2023/07/25 05:52:36;;;;;;;0.90;0.90;;;;;;;;;;4972341;28;20310;-84
2023/07/25 05:55:05;;;;;;;1.50;0.87;;;;;;;;;;4973433;28;20204;-83
2023/07/25 05:57:33;;;;;;;0.70;0.70;;;;;;;;;;4973434;28;20201;-83
2023/07/25 06:00:04;;;;;;;0.63;0.63;;;;;;;;;;4972978;28;20196;-83
2023/07/25 06:02:32;;;;;;;0.60;0.60;;;;;;;;;;4972543;28;20193;-83
2023/07/25 06:05:01;;;;;;;0.60;0.60;;;;;;;;;;4973245;28;20264;-83
2023/07/25 06:07:29;;;;;;;0.60;0.60;;;;;;;;;;4972549;28;20229;-83
2023/07/25 06:09:58;;;;;;;0.50;0.50;;;;;;;;;;4972899;28;20208;-83
2023/07/25 06:12:26;;;;;;;0.47;0.47;;;;;;;;;;4972915;28;20208;-83
2023/07/25 06:14:55;;;;;;;0.60;0.47;;;;;;;;;;4973737;28;20280;-83
2023/07/25 06:17:25;;;;;;;2.27;0.90;;;;;;;;;;4973105;28;20208;-84
2023/07/25 06:19:55;;;;;;;0.60;0.60;;;;;;;;;;4969733;28;20219;-81
2023/07/25 06:22:23;;;;;;;0.73;0.73;;;;;;;;;;4976163;28;20208;-81
2023/07/25 06:24:51;;;;;;;0.53;0.53;;;;;;;;;;4976074;28;20238;-81
2023/07/25 06:27:20;;;;;;;0.70;0.70;;;;;;;;;;4975225;28;20229;-81
2023/07/25 06:29:50;;;;;;;1.17;0.60;;;;;;;;;;4973474;28;20243;-81
2023/07/25 06:32:19;;;;;;;1.17;0.70;;;;;;;;;;4975654;28;20218;-80
2023/07/25 06:34:49;;;;;;;3.40;0.90;;;;;;;;;;4976541;28;20210;-81
2023/07/25 06:37:19;;;;;;;0.63;0.63;;;;;;;;;;4976441;28;20275;-80
2023/07/25 06:39:47;;;;;;;0.90;0.53;;;;;;;;;;4976837;28;20248;-80
2023/07/25 06:42:15;;;;;;;0.50;0.50;;;;;;;;;;4976285;28;20201;-80
2023/07/25 06:44:44;;;;;;;2.07;1.27;;;;;;;;;;4975775;28;20198;-79
2023/07/25 06:47:12;;;;;;;0.50;0.50;;;;;;;;;;4976074;28;20240;-80
2023/07/25 06:49:41;;;;;;;0.63;0.63;;;;;;;;;;4976144;28;20212;-79
2023/07/25 06:52:11;;;;;;;0.50;0.50;;;;;;;;;;4976189;28;20206;-80
2023/07/25 06:54:39;;;;;;;0.60;0.60;;;;;;;;;;4975157;28;20205;-80
2023/07/25 06:57:08;;;;;;;2.30;0.90;;;;;;;;;;4976315;28;20292;-80
2023/07/25 06:59:36;;;;;;;0.53;0.53;;;;;;;;;;4976161;28;20280;-81
2023/07/25 07:02:05;;;;;;;0.50;0.50;;;;;;;;;;4975857;28;20216;-81
2023/07/25 07:04:33;;;;;;;0.60;0.60;;;;;;;;;;4976005;28;20204;-80
2023/07/25 07:07:02;;;;;;;0.93;0.87;;;;;;;;;;4975713;28;20240;-81
2023/07/25 07:09:33;;;;;;;0.40;0.40;;;;;;;;;;4976448;28;20201;-81
2023/07/25 07:12:02;;;;;;;4.33;0.70;;;;;;;;;;4975763;28;20205;-81
2023/07/25 07:14:30;;;;;;;0.63;0.63;;;;;;;;;;4975875;28;20216;-80
2023/07/25 07:16:59;;;;;;;0.70;0.70;;;;;;;;;;4975719;28;20193;-81
2023/07/25 07:19:27;;;;;;;1.20;1.10;;;;;;;;;;4975108;28;20224;-80
2023/07/25 07:21:55;;;;;;;3.10;1.23;;;;;;;;;;4975592;28;20216;-77
2023/07/25 07:24:24;;;;;;;0.60;0.60;;;;;;;;;;4975403;28;20208;-80
2023/07/25 07:26:54;;;;;;;1.90;0.80;;;;;;;;;;4975658;28;20212;-80
2023/07/25 07:29:22;;;;;;;0.50;0.50;;;;;;;;;;4975411;28;20212;-81
2023/07/25 07:31:51;;;;;;;0.80;0.73;;;;;;;;;;4975142;28;20275;-80
2023/07/25 07:34:19;;;;;;;1.70;0.60;;;;;;;;;;4975642;28;20205;-81
2023/07/25 07:36:48;;;;;;;0.63;0.63;;;;;;;;;;4975697;28;20232;-81
2023/07/25 07:39:16;;;;;;;3.50;0.70;;;;;;;;;;4975515;28;20197;-81
2023/07/25 07:41:45;;;;;;;0.70;0.70;;;;;;;;;;4975694;28;20212;-81
2023/07/25 07:44:14;;;;;;;0.70;0.70;;;;;;;;;;4975500;28;20251;-80
2023/07/25 07:46:43;;;;;;;0.97;0.70;;;;;;;;;;4975038;28;20209;-80
2023/07/25 07:49:11;;;;;;;2.87;1.40;;;;;;;;;;4975141;28;20233;-81
2023/07/25 07:51:40;;;;;;;3.27;1.23;;;;;;;;;;4975475;28;20235;-80
2023/07/25 07:54:08;;;;;;;0.40;0.40;;;;;;;;;;4975102;28;20226;-80
2023/07/25 07:56:36;;;;;;;1.27;0.60;;;;;;;;;;4974684;28;20193;-80
2023/07/25 07:59:05;;;;;;;3.13;1.00;;;;;;;;;;4975714;28;20209;-80
2023/07/25 08:01:35;;;;;;;1.93;0.80;;;;;;;;;;4975214;28;20232;-81
2023/07/25 08:04:08;;;;;;;1.03;0.50;;;;;;;;;;4974736;28;20193;-80
2023/07/25 08:06:37;;;;;;;0.50;0.50;;;;;;;;;;4974628;28;20275;-80
2023/07/25 08:09:05;;;;;;;2.97;0.80;;;;;;;;;;4975031;28;20235;-80
2023/07/25 08:11:34;;;;;;;1.47;0.87;;;;;;;;;;4974689;28;20212;-80
2023/07/25 08:14:02;;;;;;;1.60;0.67;;;;;;;;;;4974773;28;20205;-80
2023/07/25 08:16:31;;;;;;;0.90;0.90;;;;;;;;;;4975506;28;20209;-81
2023/07/25 08:19:01;;;;;;;1.40;0.70;;;;;;;;;;4975166;28;20201;-81
2023/07/25 08:21:30;;;;;;;1.10;1.00;;;;;;;;;;4974448;28;20204;-81
2023/07/25 08:24:02;;;;;;;0.73;0.73;;;;;;;;;;4975116;28;20228;-81
2023/07/25 08:26:31;;;;;;;2.07;0.83;;;;;;;;;;4975218;28;20201;-81
2023/07/25 08:28:59;;;;;;;1.17;0.87;;;;;;;;;;4974291;28;20228;-81
2023/07/25 08:31:28;;;;;;;1.53;0.80;;;;;;;;;;4974624;28;20204;-81
2023/07/25 08:33:58;;;;;;;2.13;0.97;;;;;;;;;;4974450;28;20228;-80
2023/07/25 08:36:28;;;;;;;1.57;0.60;;;;;;;;;;4974272;28;20216;-81
2023/07/25 08:38:56;;;;;;;0.57;0.53;;;;;;;;;;4974171;28;20197;-81
2023/07/25 08:41:27;;;;;;;1.43;1.00;;;;;;;;;;4974506;28;20197;-81
2023/07/25 08:43:56;;;;;;;1.17;1.07;;;;;;;;;;4973643;28;20232;-81
2023/07/25 08:46:28;;;;;;;0.97;0.90;;;;;;;;;;4974040;28;20201;-81
2023/07/25 08:49:01;;;;;;;0.47;0.47;;;;;;;;;;4974093;28;20252;-81
2023/07/25 08:51:34;;;;;;;0.83;0.83;;;;;;;;;;4974007;28;20201;-81
2023/07/25 08:54:03;;;;;;;2.37;0.83;;;;;;;;;;4974179;28;20205;-81
2023/07/25 08:56:32;;;;;;;2.57;1.87;;;;;;;;;;4974051;28;20246;-81
2023/07/25 08:59:01;;;;;;;2.37;0.97;;;;;;;;;;4973952;28;20208;-81
2023/07/25 09:01:30;;;;;;;4.57;1.07;;;;;;;;;;4973812;28;20209;-80
2023/07/25 09:04:00;;;;;;;1.20;1.00;;;;;;;;;;4973779;28;20210;-81
2023/07/25 09:06:29;;;;;;;0.57;0.57;;;;;;;;;;4973444;28;20221;-81
2023/07/25 09:08:58;;;;;;;4.53;0.97;;;;;;;;;;4973630;28;20231;-81
2023/07/25 09:11:27;;;;;;;0.63;0.60;;;;;;;;;;4974043;28;20210;-81
2023/07/25 09:13:56;;;;;;;0.60;0.60;;;;;;;;;;4972990;28;20302;-81
2023/07/25 09:16:25;;;;;;;0.50;0.50;;;;;;;;;;4973576;28;20226;-81
2023/07/25 09:18:53;;;;;;;0.80;0.80;;;;;;;;;;4973404;28;20185;-80
2023/07/25 09:21:22;;;;;;;0.80;0.80;;;;;;;;;;4973627;28;20202;-80
2023/07/25 09:23:53;;;;;;;0.60;0.60;;;;;;;;;;4973694;28;20234;-80
2023/07/25 09:26:26;;;;;;;1.93;0.83;;;;;;;;;;4973732;28;20211;-81
2023/07/25 09:28:56;;;;;;;0.53;0.53;;;;;;;;;;4973629;28;20235;-81
2023/07/25 09:31:28;;;;;;;1.53;1.07;;;;;;;;;;4973216;28;20212;-80
2023/07/25 09:33:58;;;;;;;1.60;0.90;;;;;;;;;;4973227;28;20222;-80
2023/07/25 09:36:31;;;;;;;0.70;0.70;;;;;;;;;;4974151;28;20208;-80
2023/07/25 09:38:59;;;;;;;19.83;1.03;;;;;;;;;;4974092;28;20204;-83
2023/07/25 09:41:29;;;;;;;0.77;0.77;;;;;;;;;;4973673;28;20271;-82
2023/07/25 09:44:02;;;;;;;1.50;1.17;;;;;;;;;;4973685;28;20209;-82
2023/07/25 09:46:31;;;;;;;0.40;0.40;;;;;;;;;;4973791;28;20303;-79
2023/07/25 09:48:59;;;;;;;5.00;0.60;;;;;;;;;;4973322;28;20229;-82
2023/07/25 09:51:28;;;;;;;3.30;1.20;;;;;;;;;;4973280;28;20211;-81
2023/07/25 09:53:59;;;;;;;2.80;1.07;;;;;;;;;;4973110;28;20205;-80
2023/07/25 09:56:29;;;;;;;0.73;0.73;;;;;;;;;;4972657;28;20202;-81
2023/07/25 09:58:58;;;;;;;0.53;0.53;;;;;;;;;;4972647;28;20193;-81
2023/07/25 10:01:29;;;;;;;10.67;0.90;;;;;;;;;;4973107;28;20210;-81
2023/07/25 10:03:58;;;;;;;0.63;0.63;;;;;;;;;;4972522;28;20195;-82
2023/07/25 10:06:27;;;;;;;2.67;0.73;;;;;;;;;;4972122;28;20252;-82
2023/07/25 10:08:57;;;;;;;0.70;0.70;;;;;;;;;;4973409;28;20220;-81
2023/07/25 10:11:26;;;;;;;5.30;1.13;;;;;;;;;;4973296;28;20296;-82
2023/07/25 10:13:56;;;;;;;0.80;0.80;;;;;;;;;;4972522;28;20205;-82
2023/07/25 10:16:25;;;;;;;1.73;0.90;;;;;;;;;;4972765;28;20232;-81
2023/07/25 10:18:57;;;;;;;1.10;1.00;;;;;;;;;;4973063;28;20215;-81
2023/07/25 10:21:27;;;;;;;1.13;0.70;;;;;;;;;;4972928;28;20259;-81
2023/07/25 10:23:59;;;;;;;10.67;1.07;;;;;;;;;;4972485;28;20245;-81
2023/07/25 10:26:28;;;;;;;0.50;0.50;;;;;;;;;;4972916;28;20201;-81
2023/07/25 10:29:01;;;;;;;0.90;0.90;;;;;;;;;;4973026;28;20221;-80
2023/07/25 10:31:33;;;;;;;0.63;0.63;;;;;;;;;;4972434;28;20234;-81
2023/07/25 10:34:04;;;;;;;0.40;0.40;;;;;;;;;;4972537;28;20263;-81
2023/07/25 10:36:32;;;;;;;2.73;0.70;;;;;;;;;;4972663;28;20207;-81
2023/07/25 10:39:09;;;;;;;0.70;0.70;;;;;;;;;;4972603;28;20209;-80
2023/07/25 10:41:38;;;;;;;2.97;1.07;;;;;;;;;;4972530;28;20300;-80
2023/07/25 10:44:08;;;;;;;1.93;0.80;;;;;;;;;;4972112;28;20206;-80
2023/07/25 10:46:36;;;;;;;0.60;0.60;;;;;;;;;;4972832;28;20205;-80
2023/07/25 10:49:05;;;;;;;0.93;0.70;;;;;;;;;;4972918;28;20231;-81
2023/07/25 10:51:48;;;;;;;0.60;0.60;;;;;;;;;;4972823;28;20219;-80
2023/07/25 10:54:21;;;;;;;0.70;0.70;;;;;;;;;;4972850;28;20300;-80
2023/07/25 10:57:04;;;;;;;0.67;0.67;;;;;;;;;;4972609;28;20211;-80
2023/07/25 10:59:34;;;;;;;1.10;1.10;;;;;;;;;;4972383;28;20210;-82
2023/07/25 11:02:03;;;;;;;0.77;0.60;;;;;;;;;;4972606;28;20200;-81
2023/07/25 11:04:32;;;;;;;0.43;0.43;;;;;;;;;;4972412;28;20205;-82
2023/07/25 11:07:09;;;;;;;1.20;0.80;;;;;;;;;;4972402;28;20245;-80
2023/07/25 11:09:41;;;;;;;0.50;0.50;;;;;;;;;;4975932;28;20240;-82
2023/07/25 11:12:10;;;;;;;0.67;0.57;;;;;;;;;;4976072;28;20209;-82
2023/07/25 11:14:43;;;;;;;2.00;0.60;;;;;;;;;;4976009;28;20237;-82
2023/07/25 11:17:12;;;;;;;3.40;0.97;;;;;;;;;;4976050;28;20205;-82
2023/07/25 11:19:41;;;;;;;1.07;0.80;;;;;;;;;;4976530;28;20210;-81
2023/07/25 11:22:10;;;;;;;0.80;0.80;;;;;;;;;;4975754;28;20211;-80
2023/07/25 11:24:43;;;;;;;0.60;0.60;;;;;;;;;;4975269;28;20211;-81
2023/07/25 11:27:12;;;;;;;0.60;0.60;;;;;;;;;;4976012;28;20303;-80
2023/07/25 11:29:40;;;;;;;0.60;0.60;;;;;;;;;;4975522;28;20250;-81
2023/07/25 11:32:10;;;;;;;1.50;0.50;;;;;;;;;;4975586;28;20267;-81
2023/07/25 11:34:39;;;;;;;0.60;0.60;;;;;;;;;;4975066;28;20203;-81
2023/07/25 11:37:11;;;;;;;5.83;1.37;;;;;;;;;;4975674;28;20212;-81
2023/07/25 11:39:40;;;;;;;0.57;0.57;;;;;;;;;;4975128;28;20198;-82
2023/07/25 11:42:09;;;;;;;0.63;0.63;;;;;;;;;;4975241;28;20206;-81
2023/07/25 11:44:38;;;;;;;0.40;0.40;;;;;;;;;;4975202;28;20217;-81
2023/07/25 11:47:06;;;;;;;0.50;0.50;;;;;;;;;;4975945;28;20207;-82
2023/07/25 11:49:36;;;;;;;1.70;1.07;;;;;;;;;;4975246;28;20212;-81
2023/07/25 11:52:23;;;;;;;2.93;0.77;;;;;;;;;;4975482;28;20232;-80
2023/07/25 11:54:51;;;;;;;3.13;0.70;;;;;;;;;;4975574;28;20210;-81
2023/07/25 11:57:20;;;;;;;0.70;0.70;;;;;;;;;;4975637;28;20205;-80
2023/07/25 11:59:53;;;;;;;0.77;0.70;;;;;;;;;;4974787;28;20198;-80
2023/07/25 12:02:24;;;;;;;8.60;1.27;;;;;;;;;;4975212;28;20208;-81
2023/07/25 12:04:54;;;;;;;0.60;0.60;;;;;;;;;;4975133;28;20209;-80
2023/07/25 12:07:23;;;;;;;0.50;0.50;;;;;;;;;;4974274;28;20253;-80
2023/07/25 12:09:52;;;;;;;0.50;0.50;;;;;;;;;;4975016;28;20236;-80
2023/07/25 12:12:21;;;;;;;0.77;0.73;;;;;;;;;;4974751;28;20217;-80
2023/07/25 12:14:57;;;;;;;0.90;0.90;;;;;;;;;;4974412;28;20209;-80
2023/07/25 12:17:41;;;;;;;1.70;0.70;;;;;;;;;;4974607;28;20214;-80
2023/07/25 12:20:17;;;;;;;0.60;0.60;;;;;;;;;;4975018;28;20200;-80
2023/07/25 12:22:45;;;;;;;2.20;0.70;;;;;;;;;;4974585;28;20210;-80
2023/07/25 12:25:17;;;;;;;1.60;1.13;;;;;;;;;;4974280;28;20248;-80
2023/07/25 12:27:46;;;;;;;2.87;0.70;;;;;;;;;;4974750;28;20266;-80
2023/07/25 12:30:15;;;;;;;0.97;0.87;;;;;;;;;;4974446;28;20319;-80
2023/07/25 12:32:44;;;;;;;1.80;0.80;;;;;;;;;;4974540;28;20274;-81
2023/07/25 12:35:13;;;;;;;1.70;0.83;;;;;;;;;;4974088;28;20212;-81
2023/07/25 12:37:42;;;;;;;2.10;0.87;;;;;;;;;;4974578;28;20252;-80
2023/07/25 12:40:11;;;;;;;1.70;0.93;;;;;;;;;;4974144;28;20202;-81
2023/07/25 12:42:40;;;;;;;0.70;0.70;;;;;;;;;;4973837;28;20219;-81
2023/07/25 12:45:08;;;;;;;0.70;0.70;;;;;;;;;;4974337;28;20216;-81
2023/07/25 12:47:38;;;;;;;0.77;0.77;;;;;;;;;;4974576;28;20213;-80
2023/07/25 12:50:08;;;;;;;1.33;0.90;;;;;;;;;;4974171;28;20325;-80
2023/07/25 12:52:37;;;;;;;0.90;0.90;;;;;;;;;;4973916;28;20291;-80
2023/07/25 12:55:08;;;;;;;2.10;1.00;;;;;;;;;;4974017;28;20214;-80
2023/07/25 12:57:36;;;;;;;1.23;0.80;;;;;;;;;;4974842;28;20215;-81
2023/07/25 13:00:10;;;;;;;3.20;2.10;;;;;;;;;;4974106;28;20210;-81
2023/07/25 13:02:38;;;;;;;1.43;1.07;;;;;;;;;;4974213;28;20224;-80
2023/07/25 13:05:08;;;;;;;0.70;0.70;;;;;;;;;;4974320;28;20293;-80
2023/07/25 13:07:36;;;;;;;3.90;1.77;;;;;;;;;;4973537;28;20249;-80
2023/07/25 13:10:06;;;;;;;1.00;0.90;;;;;;;;;;4973470;28;20302;-82
2023/07/25 13:12:36;;;;;;;0.60;0.60;;;;;;;;;;4974040;28;20202;-81
2023/07/25 13:15:06;;;;;;;1.73;1.10;;;;;;;;;;4974113;28;20219;-81
2023/07/25 13:17:35;;;;;;;3.03;0.90;;;;;;;;;;4973396;28;20262;-81
2023/07/25 13:20:06;;;;;;;2.40;1.33;;;;;;;;;;4973831;28;20235;-80
2023/07/25 13:22:35;;;;;;;1.37;1.10;;;;;;;;;;4974404;28;20204;-80
2023/07/25 13:25:04;;;;;;;0.73;0.73;;;;;;;;;;4973398;28;20223;-81
2023/07/25 13:27:32;;;;;;;0.70;0.70;;;;;;;;;;4974052;28;20218;-80
2023/07/25 13:30:02;;;;;;;2.57;2.37;;;;;;;;;;4973257;28;20201;-81
2023/07/25 13:32:31;;;;;;;3.70;1.10;;;;;;;;;;4973556;28;20232;-80
2023/07/25 13:35:00;;;;;;;2.77;1.17;;;;;;;;;;4973282;28;20208;-80
2023/07/25 13:37:28;;;;;;;2.83;1.43;;;;;;;;;;4973827;28;20210;-80
2023/07/25 13:39:57;;;;;;;1.83;0.70;;;;;;;;;;4973245;28;20274;-81
2023/07/25 13:42:26;;;;;;;1.03;0.63;;;;;;;;;;4973567;28;20223;-81
2023/07/25 13:44:54;;;;;;;0.70;0.70;;;;;;;;;;4972945;28;20201;-81
2023/07/25 13:47:24;;;;;;;0.67;0.67;;;;;;;;;;4973496;28;20259;-81
2023/07/25 13:49:55;;;;;;;2.47;0.80;;;;;;;;;;4973534;28;20275;-81
2023/07/25 13:52:23;;;;;;;0.90;0.90;;;;;;;;;;4972892;28;20222;-81
2023/07/25 13:54:53;;;;;;;0.70;0.70;;;;;;;;;;4973042;28;20219;-80
2023/07/25 13:57:22;;;;;;;0.80;0.80;;;;;;;;;;4973896;28;20207;-81
2023/07/25 13:59:58;;;;;;;0.80;0.80;;;;;;;;;;4973108;28;20285;-81
2023/07/25 14:02:28;;;;;;;2.77;1.00;;;;;;;;;;4973006;28;20209;-81
2023/07/25 14:04:57;;;;;;;0.60;0.60;;;;;;;;;;4973131;28;20296;-81
2023/07/25 14:07:26;;;;;;;0.90;0.90;;;;;;;;;;4972790;28;20242;-81
2023/07/25 14:09:55;;;;;;;1.13;1.13;;;;;;;;;;4972343;28;20201;-82
2023/07/25 14:12:23;;;;;;;1.23;0.80;;;;;;;;;;4973015;28;20220;-82
2023/07/25 14:14:52;;;;;;;2.57;1.17;;;;;;;;;;4972866;28;20200;-82
2023/07/25 14:17:23;;;;;;;1.23;0.90;;;;;;;;;;4972729;28;20274;-82
2023/07/25 14:19:53;;;;;;;1.70;0.80;;;;;;;;;;4973001;28;20243;-82
2023/07/25 14:22:22;;;;;;;3.50;0.70;;;;;;;;;;4973163;28;20214;-81
2023/07/25 14:24:51;;;;;;;0.73;0.73;;;;;;;;;;4972874;28;20204;-80
2023/07/25 14:27:22;;;;;;;1.13;1.07;;;;;;;;;;4972691;28;20223;-81
2023/07/25 14:29:51;;;;;;;0.60;0.60;;;;;;;;;;4973324;28;20323;-81
2023/07/25 14:32:19;;;;;;;3.80;0.97;;;;;;;;;;4973170;28;20230;-80
2023/07/25 14:34:48;;;;;;;1.63;1.63;;;;;;;;;;4973146;28;20301;-81
2023/07/25 14:37:18;;;;;;;1.63;1.53;;;;;;;;;;4972608;28;20204;-81
2023/07/25 14:39:46;;;;;;;1.90;1.03;;;;;;;;;;4973168;28;20212;-81
2023/07/25 14:42:15;;;;;;;2.67;0.80;;;;;;;;;;4974122;28;20198;-82
2023/07/25 14:44:43;;;;;;;4.23;1.03;;;;;;;;;;4975913;28;20197;-82
2023/07/25 14:47:12;;;;;;;1.00;1.00;;;;;;;;;;4976066;28;20192;-81
2023/07/25 14:49:40;;;;;;;3.00;1.03;;;;;;;;;;4976256;28;20297;-77
2023/07/25 14:52:09;;;;;;;1.53;1.33;;;;;;;;;;4976034;28;20230;-82
2023/07/25 14:54:39;;;;;;;1.47;0.97;;;;;;;;;;4975898;28;20205;-82
2023/07/25 14:57:07;;;;;;;1.07;0.93;;;;;;;;;;4976518;28;20202;-82